Laarne, Belgium
Current Conditions -  °F | °C
As of 12:50 PM on Saturday 20 Dec 2014 (Local Time) from EBAW Reporting Station
Scattered Clouds Scattered Clouds  
Wind Chill: 41°   Ceiling: Unl
Heat Index: 48°   Visibility: 6mi
Dew Point: 37°   Wind: 20mph
Humidity: 66%   Direction: 270°W
Pressure: 30.18"   Gusts: NA
Location:  51.03°N, 3.85°E
Report Text: EBAW 201150Z 27017KT 240V300 9999 SCT026 09/03 Q1022 TEMPO 27017G30KT
Loading
Personal Weather Stations






























Interactive Weather Map New forecast layout! Learn more

10-Day Weather Forecast

Advertisements
Track Severe Weather on mobile